Newkirk, Iowa
Current Conditions -  °F | °C
As of 12:15 PM on Saturday 22 Nov 2014 (Local Time) from KSHL Reporting Station
Haze Haze  
Wind Chill: 27°   Ceiling: 300
Heat Index: 36°   Visibility: 1.2mi
Dew Point: 36°   Wind: 13mph
Humidity: 100%   Direction: 180°S
Pressure: 29.68"   Gusts: 20mph
Location:  43.0843°N, 95.9196°W
Report Text: KSHL 221815Z AUTO 18011G17KT 1 1/4SM BR OVC003 02/02 A2968 RMK AO2
Loading
Personal Weather Stations






























Interactive Weather Map New forecast layout! Learn more

10-Day Weather Forecast

Advertisements
Track Severe Weather on mobile